Airfield :
LOGIN :

Register | Disclaimer

   EN    FR    IT 

 










Legend :    VFR   Marginal VFR   IFR   Intensive IFR   Very Intensive IFR
Visi :
Ceiling :
>= 8 km
>= 3000ft
5 to 8 km
1000 to 3000 ft
1500m to 5 km
500 to 1000 ft
800 to 1500m
200 to 500 ft
< 800m
< 200 ft
Symbols :   Thunderstorms  Fog  Heavy snow  Heavy precipitations  Wind > 20 kt
SIGMETs :     Misc.  Thunderstorms  Icing  Turbulence  Mountain Waves  Volcanic Ashes







- Airport Elevation : 42 ft
- IATA code : KGD


UMKK - Khrabrava - Kaliningrad

CURRENT METAR :
  • 221600Z 16002MPS 4400 BR FEW040 M06/M08 Q1014 R24/29//50 NOSIG RMK QFE759/1013

EXPIRED METARs :
  • 221530Z 16002MPS 4100 BR SCT040 M06/M08 Q1014 R24/29//50 NOSIG RMK QFE759/1013
  • 221500Z 16003MPS 4100 BR SCT040 M05/M07 Q1014 R24/29//50 NOSIG RMK QFE759/1013
  • 221430Z 15002MPS 4500 BR SCT038 M05/M07 Q1014 R24/29//50 NOSIG RMK QFE759/1013
  • 221400Z 16002MPS 4800 BR SCT035 M04/M06 Q1014 R24/29//50 NOSIG RMK QFE760/1013
  • 221330Z 15003MPS 4700 BR SCT034 M03/M06 Q1014 R24/29//50 NOSIG RMK QFE760/1013

TAF TAF UMKK
Valid from the 22 at 15:00 until the 23 at 15:00 UTC


221400Z 2215/2315 16003G08MPS 4000 BR BKN011
BECMG 2217/2219 2100 BR BKN005
TEMPO 2219/2306 0500 FZFG VV002
FM230900 12003G08MPS 9999 SCT011



MET'MAP, your aeronautical weather chart ! - Copyright ORBIFLY December 2007 - Disclaimer

ORBIFLY MET'MAP TEAM :

Programming & Development : Alexandra Zaïnal
Concept & Development : Baudouin d'Aumeries
Co-Development & Prog : Marc-Olivier Méhu
Technical & hardware support : Manuel Goepfert

Contact : metmap@orbifly.com




SOURCES & CREDITS :

   NOAA